createdAt,value
2023-05-23T00:03:13.634Z,20.68
2023-05-23T00:08:19.430Z,20.82
2023-05-23T00:13:25.162Z,20.91
2023-05-23T00:18:31.992Z,21.07
2023-05-23T00:23:37.313Z,21.24
2023-05-23T00:28:43.455Z,21.38
2023-05-23T00:33:49.139Z,21.56
2023-05-23T00:38:54.519Z,21.72
2023-05-23T00:44:01.330Z,21.90
2023-05-23T00:49:06.558Z,22.08
2023-05-23T00:54:12.835Z,22.24
2023-05-23T00:59:18.615Z,22.38
2023-05-23T01:04:31.148Z,22.50
2023-05-23T01:09:36.610Z,22.62
2023-05-23T01:14:58.691Z,22.79
2023-05-23T01:20:19.362Z,22.96
2023-05-23T01:25:30.764Z,23.13
2023-05-23T01:30:41.714Z,23.27
2023-05-23T01:35:47.873Z,23.41
2023-05-23T01:40:53.494Z,23.58
2023-05-23T01:46:01.270Z,23.72
2023-05-23T01:51:07.604Z,23.87
2023-05-23T01:56:14.953Z,24.02
2023-05-23T02:01:21.722Z,24.13
2023-05-23T02:06:27.451Z,24.23
2023-05-23T02:11:32.843Z,24.35
2023-05-23T02:16:38.383Z,24.47
2023-05-23T02:21:43.867Z,24.60
2023-05-23T02:26:49.193Z,24.74
2023-05-23T02:31:54.403Z,24.87
2023-05-23T02:36:59.565Z,25.02
2023-05-23T02:42:05.904Z,25.10
2023-05-23T02:47:12.051Z,25.09
2023-05-23T02:52:19.058Z,25.13
2023-05-23T02:57:24.589Z,25.18
2023-05-23T03:02:30.635Z,25.20
2023-05-23T03:07:36.273Z,25.26
2023-05-23T03:12:42.275Z,25.35
2023-05-23T03:17:48.009Z,25.47
2023-05-23T03:22:54.838Z,25.60
2023-05-23T03:28:01.340Z,25.73
2023-05-23T03:33:08.431Z,25.79
2023-05-23T03:38:13.877Z,25.88
2023-05-23T03:43:19.204Z,25.97
2023-05-23T03:48:24.579Z,26.09
2023-05-23T03:53:29.976Z,26.14
2023-05-23T03:58:35.221Z,26.25
2023-05-23T04:03:46.663Z,26.35
2023-05-23T04:08:52.933Z,26.42
2023-05-23T04:13:58.776Z,26.50
2023-05-23T04:19:06.158Z,26.56
2023-05-23T04:24:13.486Z,26.63
2023-05-23T04:29:19.278Z,26.75
2023-05-23T04:34:24.656Z,26.86
2023-05-23T04:39:31.165Z,26.91
2023-05-23T04:44:54.644Z,27.02
2023-05-23T04:50:13.059Z,27.13
2023-05-23T04:55:19.135Z,27.28
2023-05-23T05:00:26.044Z,27.33
2023-05-23T05:05:33.414Z,27.44
2023-05-23T05:10:40.623Z,27.53
2023-05-23T05:15:47.132Z,27.60
2023-05-23T05:20:54.483Z,27.64
2023-05-23T05:26:02.079Z,27.61
2023-05-23T05:31:08.899Z,27.62
2023-05-23T05:36:14.287Z,27.67
2023-05-23T05:41:21.926Z,27.79
2023-05-23T05:46:30.062Z,27.89
2023-05-23T05:51:35.683Z,27.94
2023-05-23T05:56:40.953Z,28.04
2023-05-23T06:01:47.363Z,28.14
2023-05-23T06:06:52.549Z,28.22
2023-05-23T06:11:58.031Z,28.25
2023-05-23T06:17:05.222Z,28.22
2023-05-23T06:22:10.455Z,28.17
2023-05-23T06:27:16.293Z,28.17
2023-05-23T06:32:21.430Z,28.22
2023-05-23T06:37:26.824Z,28.28
2023-05-23T06:42:31.993Z,28.37
2023-05-23T06:47:46.899Z,28.42
2023-05-23T06:52:52.872Z,28.47
2023-05-23T06:57:58.915Z,28.51
2023-05-23T07:03:05.595Z,28.58
2023-05-23T07:08:12.435Z,28.62
2023-05-23T07:13:26.802Z,28.65
2023-05-23T07:18:32.875Z,28.68
2023-05-23T07:23:38.466Z,28.74
2023-05-23T07:28:44.298Z,28.75
2023-05-23T07:33:51.304Z,28.75
2023-05-23T07:39:06.911Z,28.71
2023-05-23T07:44:12.446Z,28.66
2023-05-23T07:49:17.756Z,28.65
2023-05-23T07:54:23.278Z,28.63
2023-05-23T07:59:32.827Z,28.68
2023-05-23T08:04:38.331Z,28.66
2023-05-23T08:09:43.844Z,28.63
2023-05-23T08:14:52.724Z,28.60
2023-05-23T08:20:03.489Z,28.57
2023-05-23T08:25:09.569Z,28.55
2023-05-23T08:30:17.983Z,28.52
2023-05-23T08:35:23.879Z,28.52
2023-05-23T08:40:32.648Z,28.46
2023-05-23T08:45:49.449Z,28.40
2023-05-23T08:50:55.594Z,28.29
2023-05-23T08:56:03.987Z,28.24
2023-05-23T09:01:22.079Z,28.21
2023-05-23T09:06:30.442Z,28.15
2023-05-23T09:11:36.597Z,28.08
2023-05-23T09:16:53.448Z,28.04
2023-05-23T09:22:04.069Z,27.99
2023-05-23T09:27:14.545Z,27.93
2023-05-23T09:32:21.300Z,27.91
2023-05-23T09:37:35.412Z,27.86
2023-05-23T09:42:48.803Z,27.78
2023-05-23T09:47:54.800Z,27.72
2023-05-23T09:52:59.829Z,27.72
2023-05-23T09:58:06.948Z,27.63
2023-05-23T10:03:15.868Z,27.51
2023-05-23T10:08:34.209Z,27.38
2023-05-23T10:13:40.531Z,27.27
2023-05-23T10:18:46.890Z,27.17
2023-05-23T10:23:52.370Z,27.09
2023-05-23T10:28:59.079Z,27.07
2023-05-23T10:34:42.337Z,26.97
2023-05-23T10:39:50.166Z,26.86
2023-05-23T10:44:55.183Z,26.74
2023-05-23T10:50:00.570Z,26.64
2023-05-23T10:55:14.372Z,26.51
2023-05-23T11:00:19.811Z,26.39
2023-05-23T11:05:29.357Z,26.29
2023-05-23T11:10:35.852Z,26.17
2023-05-23T11:15:46.591Z,26.06
2023-05-23T11:20:55.406Z,25.95
2023-05-23T11:26:00.492Z,25.84
2023-05-23T11:31:05.411Z,25.79
2023-05-23T11:36:11.021Z,25.69
2023-05-23T11:41:16.159Z,25.64
2023-05-23T11:46:21.266Z,25.57
2023-05-23T11:51:27.797Z,25.52
2023-05-23T11:56:33.015Z,25.47
2023-05-23T12:01:39.793Z,25.39
2023-05-23T12:06:46.541Z,25.29
2023-05-23T12:11:52.133Z,25.20
2023-05-23T12:16:58.304Z,25.10
2023-05-23T12:22:11.425Z,25.02
2023-05-23T12:27:18.762Z,24.91
2023-05-23T12:32:27.412Z,24.85
2023-05-23T12:37:32.464Z,24.85
2023-05-23T12:43:04.396Z,24.80
2023-05-23T12:48:10.084Z,24.73
2023-05-23T12:53:15.661Z,24.65
2023-05-23T12:58:20.686Z,24.58
2023-05-23T13:03:26.475Z,24.56
2023-05-23T13:08:31.492Z,24.55
2023-05-23T13:13:36.758Z,24.56
2023-05-23T13:18:42.241Z,24.56
2023-05-23T13:23:47.587Z,24.53
2023-05-23T13:28:52.593Z,24.52
2023-05-23T13:33:57.665Z,24.49
2023-05-23T13:39:05.188Z,24.52
2023-05-23T13:44:10.180Z,24.50
2023-05-23T13:49:15.156Z,24.46
2023-05-23T13:54:20.619Z,24.45
2023-05-23T13:59:26.390Z,24.42
2023-05-23T14:04:31.783Z,24.38
2023-05-23T14:09:37.135Z,24.35
2023-05-23T14:14:42.630Z,24.32
2023-05-23T14:19:48.891Z,24.28
2023-05-23T14:24:54.124Z,24.23
2023-05-23T14:29:59.137Z,24.19
2023-05-23T14:35:04.126Z,24.13
2023-05-23T14:40:13.016Z,24.11
2023-05-23T14:45:19.116Z,24.06
2023-05-23T14:50:24.605Z,23.99
2023-05-23T14:55:29.812Z,23.94
2023-05-23T15:00:35.159Z,23.89
2023-05-23T15:05:41.490Z,23.83
2023-05-23T15:10:47.919Z,23.80
2023-05-23T15:15:53.377Z,23.73
2023-05-23T15:20:59.906Z,23.65
2023-05-23T15:26:06.473Z,23.53
2023-05-23T15:31:12.040Z,23.44
2023-05-23T15:36:17.502Z,23.39
2023-05-23T15:41:24.955Z,23.33
2023-05-23T15:46:30.499Z,23.27
2023-05-23T15:51:37.524Z,23.21
2023-05-23T15:56:42.502Z,23.14
2023-05-23T16:01:47.466Z,23.08
2023-05-23T16:06:53.014Z,23.01
2023-05-23T16:11:59.553Z,22.96
2023-05-23T16:17:07.167Z,22.90
2023-05-23T16:22:12.849Z,22.87
2023-05-23T16:27:18.041Z,22.82
2023-05-23T16:32:23.249Z,22.78
2023-05-23T16:37:29.518Z,22.74
2023-05-23T16:42:34.476Z,22.72
2023-05-23T16:47:39.556Z,22.65
2023-05-23T16:52:46.098Z,22.62
2023-05-23T16:57:50.900Z,22.56
2023-05-23T17:02:55.959Z,22.62
2023-05-23T17:08:01.079Z,22.56
2023-05-23T17:13:06.223Z,22.50
2023-05-23T17:18:11.294Z,22.46
2023-05-23T17:23:16.298Z,22.46
2023-05-23T17:28:21.453Z,22.44
2023-05-23T17:33:26.606Z,22.44
2023-05-23T17:38:31.751Z,22.46
2023-05-23T17:43:36.666Z,22.48
2023-05-23T17:48:47.619Z,22.48
2023-05-23T17:53:54.974Z,22.46
2023-05-23T17:59:00.368Z,22.39
2023-05-23T18:04:05.483Z,22.31
2023-05-23T18:09:10.988Z,22.32
2023-05-23T18:14:15.999Z,22.25
2023-05-23T18:19:21.088Z,22.15
2023-05-23T18:24:26.250Z,22.07
2023-05-23T18:29:31.566Z,22.03
2023-05-23T18:34:36.609Z,21.97
2023-05-23T18:39:41.501Z,21.90
2023-05-23T18:44:46.691Z,21.84
2023-05-23T18:49:52.168Z,21.80
2023-05-23T18:54:57.360Z,21.71
2023-05-23T19:00:03.924Z,21.65
2023-05-23T19:05:08.939Z,21.57
2023-05-23T19:10:14.142Z,21.52
2023-05-23T19:15:18.509Z,21.47
2023-05-23T19:20:23.527Z,21.45
2023-05-23T19:25:28.831Z,21.44
2023-05-23T19:30:33.925Z,21.41
2023-05-23T19:35:39.746Z,21.41
2023-05-23T19:40:44.550Z,21.37
2023-05-23T19:45:49.956Z,21.32
2023-05-23T19:50:54.829Z,21.29
2023-05-23T19:55:59.767Z,21.36
2023-05-23T20:01:04.917Z,21.34
2023-05-23T20:06:10.152Z,21.30
2023-05-23T20:11:15.446Z,21.27
2023-05-23T20:16:20.742Z,21.21
2023-05-23T20:21:26.055Z,21.15
2023-05-23T20:26:31.204Z,21.14
2023-05-23T20:31:36.549Z,21.07
2023-05-23T20:36:41.509Z,21.02
2023-05-23T20:41:46.824Z,20.98
2023-05-23T20:46:52.042Z,20.95
2023-05-23T20:51:57.328Z,20.91
2023-05-23T20:57:05.100Z,20.81
2023-05-23T21:02:10.290Z,20.74
2023-05-23T21:07:15.518Z,20.68
2023-05-23T21:12:20.486Z,20.65
2023-05-23T21:17:26.041Z,20.63
2023-05-23T21:22:32.172Z,20.61
2023-05-23T21:27:37.093Z,20.69
2023-05-23T21:32:43.701Z,20.69
2023-05-23T21:37:48.596Z,20.70
2023-05-23T21:42:53.570Z,20.70
2023-05-23T21:47:58.626Z,20.68
2023-05-23T21:53:03.753Z,20.64
2023-05-23T21:58:08.905Z,20.56
2023-05-23T22:03:13.761Z,20.54
2023-05-23T22:08:19.245Z,20.51
2023-05-23T22:13:24.295Z,20.51
2023-05-23T22:18:34.636Z,20.49
2023-05-23T22:23:49.095Z,20.47
2023-05-23T22:28:54.962Z,20.51
2023-05-23T22:34:00.069Z,20.61
2023-05-23T22:39:07.697Z,20.70
2023-05-23T22:44:13.242Z,20.84
2023-05-23T22:49:19.494Z,20.96
2023-05-23T22:54:25.896Z,21.07
2023-05-23T22:59:32.126Z,21.20
2023-05-23T23:04:37.335Z,21.33
2023-05-23T23:09:42.452Z,21.44
2023-05-23T23:14:47.654Z,21.53
2023-05-23T23:19:54.716Z,21.66
2023-05-23T23:24:59.786Z,21.78
2023-05-23T23:30:05.149Z,21.87
2023-05-23T23:35:10.518Z,21.94
2023-05-23T23:40:15.822Z,22.05
2023-05-23T23:45:21.122Z,22.18
2023-05-23T23:50:28.073Z,22.27
2023-05-23T23:55:32.837Z,22.37
